sensor_id;sensor_type;location;lat;lon;timestamp;pressure;altitude;pressure_sealevel;temperature;humidity
15880;BME280;61999;51.514;14.614;2022-10-16T00:01:30;99751.44;;;9.98;65.44
15880;BME280;61999;51.514;14.614;2022-10-16T00:04:00;99758.13;;;10.02;65.31
15880;BME280;61999;51.514;14.614;2022-10-16T00:06:30;99751.34;;;10.21;64.63
15880;BME280;61999;51.514;14.614;2022-10-16T00:08:58;99758.84;;;10.05;65.06
15880;BME280;61999;51.514;14.614;2022-10-16T00:11:28;99761.81;;;9.56;67.40
15880;BME280;61999;51.514;14.614;2022-10-16T00:14:00;99758.63;;;9.96;66.18
15880;BME280;61999;51.514;14.614;2022-10-16T00:16:30;99759.50;;;10.18;65.26
15880;BME280;61999;51.514;14.614;2022-10-16T00:18:58;99763.69;;;10.20;64.73
15880;BME280;61999;51.514;14.614;2022-10-16T00:21:29;99769.38;;;9.39;67.41
15880;BME280;61999;51.514;14.614;2022-10-16T00:24:00;99770.91;;;9.52;67.50
15880;BME280;61999;51.514;14.614;2022-10-16T00:26:31;99775.69;;;9.81;66.77
15880;BME280;61999;51.514;14.614;2022-10-16T00:28:59;99772.00;;;10.05;66.20
15880;BME280;61999;51.514;14.614;2022-10-16T00:31:29;99779.41;;;10.11;65.78
15880;BME280;61999;51.514;14.614;2022-10-16T00:33:57;99788.47;;;10.18;65.18
15880;BME280;61999;51.514;14.614;2022-10-16T00:36:26;99780.78;;;10.26;65.35
15880;BME280;61999;51.514;14.614;2022-10-16T00:38:56;99786.28;;;10.23;65.34
15880;BME280;61999;51.514;14.614;2022-10-16T00:41:32;99777.84;;;10.40;64.21
15880;BME280;61999;51.514;14.614;2022-10-16T00:44:02;99783.94;;;10.09;64.86
15880;BME280;61999;51.514;14.614;2022-10-16T00:46:37;99784.31;;;10.15;65.53
15880;BME280;61999;51.514;14.614;2022-10-16T00:49:10;99786.69;;;10.39;64.59
15880;BME280;61999;51.514;14.614;2022-10-16T00:51:41;99782.13;;;10.53;63.91
15880;BME280;61999;51.514;14.614;2022-10-16T00:54:14;99789.38;;;10.28;64.48
15880;BME280;61999;51.514;14.614;2022-10-16T00:56:44;99795.19;;;10.11;65.81
15880;BME280;61999;51.514;14.614;2022-10-16T00:59:18;99790.88;;;10.21;65.23
15880;BME280;61999;51.514;14.614;2022-10-16T01:01:48;99795.13;;;10.33;64.60
15880;BME280;61999;51.514;14.614;2022-10-16T01:04:17;99794.75;;;10.38;64.67
15880;BME280;61999;51.514;14.614;2022-10-16T01:06:54;99794.72;;;10.06;65.00
15880;BME280;61999;51.514;14.614;2022-10-16T01:09:36;99795.41;;;10.19;65.33
15880;BME280;61999;51.514;14.614;2022-10-16T01:12:13;99794.31;;;10.21;65.15
15880;BME280;61999;51.514;14.614;2022-10-16T01:14:48;99800.09;;;9.83;66.10
15880;BME280;61999;51.514;14.614;2022-10-16T01:17:28;99797.56;;;9.82;66.55
15880;BME280;61999;51.514;14.614;2022-10-16T01:20:10;99792.91;;;9.74;67.39
15880;BME280;61999;51.514;14.614;2022-10-16T01:22:55;99795.50;;;9.96;66.37
15880;BME280;61999;51.514;14.614;2022-10-16T01:25:39;99801.75;;;9.84;66.20
15880;BME280;61999;51.514;14.614;2022-10-16T01:28:15;99792.88;;;9.85;66.68
15880;BME280;61999;51.514;14.614;2022-10-16T01:30:46;99787.28;;;10.11;65.26
15880;BME280;61999;51.514;14.614;2022-10-16T01:33:20;99793.81;;;9.95;65.93
15880;BME280;61999;51.514;14.614;2022-10-16T01:35:55;99797.13;;;9.65;66.64
15880;BME280;61999;51.514;14.614;2022-10-16T01:38:33;99797.00;;;9.22;68.21
15880;BME280;61999;51.514;14.614;2022-10-16T01:41:09;99802.50;;;9.30;68.61
15880;BME280;61999;51.514;14.614;2022-10-16T01:43:46;99805.50;;;9.14;68.84
15880;BME280;61999;51.514;14.614;2022-10-16T01:46:20;99812.50;;;8.44;71.36
15880;BME280;61999;51.514;14.614;2022-10-16T01:48:50;99813.75;;;8.28;72.22
15880;BME280;61999;51.514;14.614;2022-10-16T01:51:20;99823.28;;;8.53;72.77
15880;BME280;61999;51.514;14.614;2022-10-16T01:53:54;99811.38;;;9.29;69.24
15880;BME280;61999;51.514;14.614;2022-10-16T01:56:25;99807.88;;;9.40;67.98
15880;BME280;61999;51.514;14.614;2022-10-16T01:59:00;99814.94;;;9.50;67.60
15880;BME280;61999;51.514;14.614;2022-10-16T02:01:33;99820.69;;;9.44;67.36
15880;BME280;61999;51.514;14.614;2022-10-16T02:04:18;99825.69;;;9.13;68.54
15880;BME280;61999;51.514;14.614;2022-10-16T02:06:48;99817.81;;;9.36;67.84
15880;BME280;61999;51.514;14.614;2022-10-16T02:09:16;99827.25;;;9.39;67.70
15880;BME280;61999;51.514;14.614;2022-10-16T02:11:44;99826.78;;;9.45;67.49
15880;BME280;61999;51.514;14.614;2022-10-16T02:14:14;99828.72;;;9.20;68.40
15880;BME280;61999;51.514;14.614;2022-10-16T02:16:45;99823.31;;;9.22;68.65
15880;BME280;61999;51.514;14.614;2022-10-16T02:19:14;99825.84;;;9.23;68.26
15880;BME280;61999;51.514;14.614;2022-10-16T02:21:48;99827.69;;;8.87;69.56
15880;BME280;61999;51.514;14.614;2022-10-16T02:24:28;99832.41;;;9.29;68.56
15880;BME280;61999;51.514;14.614;2022-10-16T02:27:07;99842.72;;;8.74;69.73
15880;BME280;61999;51.514;14.614;2022-10-16T02:29:42;99830.47;;;8.86;69.97
15880;BME280;61999;51.514;14.614;2022-10-16T02:32:20;99830.72;;;9.17;69.27
15880;BME280;61999;51.514;14.614;2022-10-16T02:34:50;99823.53;;;9.07;69.19
15880;BME280;61999;51.514;14.614;2022-10-16T02:37:20;99831.81;;;9.48;68.43
15880;BME280;61999;51.514;14.614;2022-10-16T02:39:49;99834.66;;;9.22;69.01
15880;BME280;61999;51.514;14.614;2022-10-16T02:42:18;99839.78;;;8.90;69.81
15880;BME280;61999;51.514;14.614;2022-10-16T02:44:47;99847.25;;;9.30;69.35
15880;BME280;61999;51.514;14.614;2022-10-16T02:47:15;99844.63;;;9.75;67.12
15880;BME280;61999;51.514;14.614;2022-10-16T02:49:43;99838.72;;;9.94;66.66
15880;BME280;61999;51.514;14.614;2022-10-16T02:52:11;99839.31;;;9.97;66.38
15880;BME280;61999;51.514;14.614;2022-10-16T02:54:39;99843.16;;;9.93;66.20
15880;BME280;61999;51.514;14.614;2022-10-16T02:57:07;99838.28;;;9.55;67.80
15880;BME280;61999;51.514;14.614;2022-10-16T02:59:35;99831.22;;;9.44;67.40
15880;BME280;61999;51.514;14.614;2022-10-16T03:02:04;99842.81;;;9.75;66.97
15880;BME280;61999;51.514;14.614;2022-10-16T03:04:32;99834.78;;;9.88;66.85
15880;BME280;61999;51.514;14.614;2022-10-16T03:07:01;99834.19;;;9.62;67.39
15880;BME280;61999;51.514;14.614;2022-10-16T03:09:28;99841.03;;;9.76;66.90
15880;BME280;61999;51.514;14.614;2022-10-16T03:11:56;99829.75;;;9.63;67.36
15880;BME280;61999;51.514;14.614;2022-10-16T03:14:24;99834.56;;;9.24;67.87
15880;BME280;61999;51.514;14.614;2022-10-16T03:16:57;99834.53;;;9.80;66.84
15880;BME280;61999;51.514;14.614;2022-10-16T03:19:26;99835.03;;;9.74;67.14
15880;BME280;61999;51.514;14.614;2022-10-16T03:21:54;99832.88;;;9.79;66.64
15880;BME280;61999;51.514;14.614;2022-10-16T03:24:22;99834.06;;;9.64;66.58
15880;BME280;61999;51.514;14.614;2022-10-16T03:26:50;99828.78;;;9.97;66.13
15880;BME280;61999;51.514;14.614;2022-10-16T03:29:19;99827.63;;;9.34;67.71
15880;BME280;61999;51.514;14.614;2022-10-16T03:31:47;99831.72;;;9.72;67.33
15880;BME280;61999;51.514;14.614;2022-10-16T03:34:16;99829.66;;;9.75;66.11
15880;BME280;61999;51.514;14.614;2022-10-16T03:36:45;99836.00;;;9.73;66.43
15880;BME280;61999;51.514;14.614;2022-10-16T03:39:14;99842.91;;;9.96;66.15
15880;BME280;61999;51.514;14.614;2022-10-16T03:41:43;99855.28;;;10.17;65.55
15880;BME280;61999;51.514;14.614;2022-10-16T03:44:13;99849.88;;;9.52;67.62
15880;BME280;61999;51.514;14.614;2022-10-16T03:46:41;99846.00;;;10.01;66.29
15880;BME280;61999;51.514;14.614;2022-10-16T03:49:09;99853.63;;;10.16;65.17
15880;BME280;61999;51.514;14.614;2022-10-16T03:51:37;99858.41;;;10.22;64.90
15880;BME280;61999;51.514;14.614;2022-10-16T03:54:06;99862.56;;;10.24;64.85
15880;BME280;61999;51.514;14.614;2022-10-16T03:56:34;99861.97;;;10.32;64.27
15880;BME280;61999;51.514;14.614;2022-10-16T03:59:02;99866.50;;;10.30;64.22
15880;BME280;61999;51.514;14.614;2022-10-16T04:01:30;99871.75;;;9.98;65.61
15880;BME280;61999;51.514;14.614;2022-10-16T04:03:58;99866.63;;;9.85;66.00
15880;BME280;61999;51.514;14.614;2022-10-16T04:06:26;99876.91;;;9.88;66.05
15880;BME280;61999;51.514;14.614;2022-10-16T04:08:54;99875.44;;;10.07;65.62
15880;BME280;61999;51.514;14.614;2022-10-16T04:11:24;99882.41;;;9.85;65.88
15880;BME280;61999;51.514;14.614;2022-10-16T04:13:52;99880.97;;;9.58;67.43
15880;BME280;61999;51.514;14.614;2022-10-16T04:16:19;99887.66;;;10.08;65.76
15880;BME280;61999;51.514;14.614;2022-10-16T04:18:47;99889.38;;;9.86;65.80
15880;BME280;61999;51.514;14.614;2022-10-16T04:21:15;99888.84;;;10.15;65.36
15880;BME280;61999;51.514;14.614;2022-10-16T04:23:43;99891.22;;;10.18;64.54
15880;BME280;61999;51.514;14.614;2022-10-16T04:26:11;99889.41;;;10.30;64.70
15880;BME280;61999;51.514;14.614;2022-10-16T04:28:40;99896.25;;;10.21;64.97
15880;BME280;61999;51.514;14.614;2022-10-16T04:31:08;99894.63;;;10.41;64.14
15880;BME280;61999;51.514;14.614;2022-10-16T04:33:36;99894.00;;;10.48;64.16
15880;BME280;61999;51.514;14.614;2022-10-16T04:36:05;99900.81;;;10.51;63.58
15880;BME280;61999;51.514;14.614;2022-10-16T04:38:36;99897.88;;;10.33;63.71
15880;BME280;61999;51.514;14.614;2022-10-16T04:41:07;99901.00;;;10.38;64.32
15880;BME280;61999;51.514;14.614;2022-10-16T04:43:37;99896.63;;;10.48;63.67
15880;BME280;61999;51.514;14.614;2022-10-16T04:46:08;99899.97;;;10.51;63.73
15880;BME280;61999;51.514;14.614;2022-10-16T04:48:37;99894.00;;;10.05;65.04
15880;BME280;61999;51.514;14.614;2022-10-16T04:51:05;99904.19;;;9.53;66.85
15880;BME280;61999;51.514;14.614;2022-10-16T04:53:33;99904.66;;;10.15;65.32
15880;BME280;61999;51.514;14.614;2022-10-16T04:56:01;99911.06;;;10.33;64.66
15880;BME280;61999;51.514;14.614;2022-10-16T04:58:29;99908.44;;;10.22;65.01
15880;BME280;61999;51.514;14.614;2022-10-16T05:01:04;99906.59;;;10.45;64.30
15880;BME280;61999;51.514;14.614;2022-10-16T05:03:39;99912.00;;;10.43;63.71
15880;BME280;61999;51.514;14.614;2022-10-16T05:06:07;99906.09;;;10.51;63.57
15880;BME280;61999;51.514;14.614;2022-10-16T05:08:35;99895.59;;;10.29;64.41
15880;BME280;61999;51.514;14.614;2022-10-16T05:11:03;99900.56;;;10.22;64.08
15880;BME280;61999;51.514;14.614;2022-10-16T05:13:31;99898.47;;;10.37;63.57
15880;BME280;61999;51.514;14.614;2022-10-16T05:15:59;99903.16;;;10.33;63.48
15880;BME280;61999;51.514;14.614;2022-10-16T05:18:27;99899.28;;;10.37;63.51
15880;BME280;61999;51.514;14.614;2022-10-16T05:20:56;99899.06;;;10.40;63.56
15880;BME280;61999;51.514;14.614;2022-10-16T05:23:24;99905.31;;;10.28;63.81
15880;BME280;61999;51.514;14.614;2022-10-16T05:25:53;99907.47;;;10.23;64.28
15880;BME280;61999;51.514;14.614;2022-10-16T05:28:22;99907.47;;;10.23;64.49
15880;BME280;61999;51.514;14.614;2022-10-16T05:30:53;99906.16;;;10.29;63.93
15880;BME280;61999;51.514;14.614;2022-10-16T05:33:26;99902.66;;;10.39;63.42
15880;BME280;61999;51.514;14.614;2022-10-16T05:36:01;99900.16;;;10.38;63.88
15880;BME280;61999;51.514;14.614;2022-10-16T05:38:29;99903.13;;;10.44;63.54
15880;BME280;61999;51.514;14.614;2022-10-16T05:40:57;99911.03;;;10.44;63.44
15880;BME280;61999;51.514;14.614;2022-10-16T05:43:27;99912.00;;;10.43;63.51
15880;BME280;61999;51.514;14.614;2022-10-16T05:45:56;99920.97;;;10.52;63.67
15880;BME280;61999;51.514;14.614;2022-10-16T05:48:25;99919.91;;;10.55;63.10
15880;BME280;61999;51.514;14.614;2022-10-16T05:50:58;99936.25;;;10.26;64.28
15880;BME280;61999;51.514;14.614;2022-10-16T05:53:27;99936.88;;;10.51;64.04
15880;BME280;61999;51.514;14.614;2022-10-16T05:55:56;99933.91;;;10.55;63.31
15880;BME280;61999;51.514;14.614;2022-10-16T05:58:28;99938.44;;;10.64;63.45
15880;BME280;61999;51.514;14.614;2022-10-16T06:00:58;99937.84;;;10.61;63.77
15880;BME280;61999;51.514;14.614;2022-10-16T06:03:27;99943.50;;;10.45;63.78
15880;BME280;61999;51.514;14.614;2022-10-16T06:05:55;99946.47;;;10.63;63.76
15880;BME280;61999;51.514;14.614;2022-10-16T06:08:24;99955.09;;;10.65;63.21
15880;BME280;61999;51.514;14.614;2022-10-16T06:11:01;99952.16;;;10.79;63.04
15880;BME280;61999;51.514;14.614;2022-10-16T06:13:29;99953.59;;;10.83;63.10
15880;BME280;61999;51.514;14.614;2022-10-16T06:15:59;99964.88;;;10.74;63.77
15880;BME280;61999;51.514;14.614;2022-10-16T06:18:29;99964.47;;;10.58;64.02
15880;BME280;61999;51.514;14.614;2022-10-16T06:20:57;99971.84;;;10.75;64.08
15880;BME280;61999;51.514;14.614;2022-10-16T06:23:28;99981.38;;;10.87;63.50
15880;BME280;61999;51.514;14.614;2022-10-16T06:26:05;99973.22;;;10.47;63.94
15880;BME280;61999;51.514;14.614;2022-10-16T06:28:34;99985.31;;;10.61;64.04
15880;BME280;61999;51.514;14.614;2022-10-16T06:31:03;100004.66;;;10.82;63.96
15880;BME280;61999;51.514;14.614;2022-10-16T06:33:32;100012.53;;;10.93;63.28
15880;BME280;61999;51.514;14.614;2022-10-16T06:36:02;100009.84;;;11.05;63.46
15880;BME280;61999;51.514;14.614;2022-10-16T06:38:31;100009.75;;;11.06;63.20
15880;BME280;61999;51.514;14.614;2022-10-16T06:41:00;100003.91;;;10.91;63.29
15880;BME280;61999;51.514;14.614;2022-10-16T06:43:30;100001.38;;;11.22;63.17
15880;BME280;61999;51.514;14.614;2022-10-16T06:46:00;100006.38;;;11.36;62.87
15880;BME280;61999;51.514;14.614;2022-10-16T06:48:29;100000.19;;;11.47;63.32
15880;BME280;61999;51.514;14.614;2022-10-16T06:50:59;100004.13;;;11.53;63.39
15880;BME280;61999;51.514;14.614;2022-10-16T06:53:30;100006.97;;;11.61;63.31
15880;BME280;61999;51.514;14.614;2022-10-16T06:56:09;100004.84;;;11.55;62.48
15880;BME280;61999;51.514;14.614;2022-10-16T06:58:37;100009.09;;;11.14;62.20
15880;BME280;61999;51.514;14.614;2022-10-16T07:01:06;100006.50;;;10.59;63.67
15880;BME280;61999;51.514;14.614;2022-10-16T07:03:37;100017.97;;;11.13;63.68
15880;BME280;61999;51.514;14.614;2022-10-16T07:06:08;100020.41;;;11.37;62.91
15880;BME280;61999;51.514;14.614;2022-10-16T07:08:38;100011.13;;;10.89;63.75
15880;BME280;61999;51.514;14.614;2022-10-16T07:11:10;100020.41;;;10.50;64.55
15880;BME280;61999;51.514;14.614;2022-10-16T07:13:41;100032.09;;;10.80;64.16
15880;BME280;61999;51.514;14.614;2022-10-16T07:16:12;100019.00;;;11.01;63.32
15880;BME280;61999;51.514;14.614;2022-10-16T07:18:41;100019.56;;;11.36;62.95
15880;BME280;61999;51.514;14.614;2022-10-16T07:21:14;100020.69;;;11.55;62.84
15880;BME280;61999;51.514;14.614;2022-10-16T07:23:43;100032.38;;;11.62;62.60
15880;BME280;61999;51.514;14.614;2022-10-16T07:26:12;100036.69;;;11.63;61.70
15880;BME280;61999;51.514;14.614;2022-10-16T07:28:43;100047.13;;;11.86;62.68
15880;BME280;61999;51.514;14.614;2022-10-16T07:31:13;100043.28;;;11.48;61.61
15880;BME280;61999;51.514;14.614;2022-10-16T07:33:43;100043.94;;;11.61;62.92
15880;BME280;61999;51.514;14.614;2022-10-16T07:36:12;100042.25;;;11.81;61.14
15880;BME280;61999;51.514;14.614;2022-10-16T07:38:42;100051.97;;;11.80;62.16
15880;BME280;61999;51.514;14.614;2022-10-16T07:41:15;100050.22;;;11.91;61.70
15880;BME280;61999;51.514;14.614;2022-10-16T07:43:46;100058.25;;;12.41;59.94
15880;BME280;61999;51.514;14.614;2022-10-16T07:46:15;100060.28;;;11.55;62.07
15880;BME280;61999;51.514;14.614;2022-10-16T07:48:44;100059.97;;;11.69;60.66
15880;BME280;61999;51.514;14.614;2022-10-16T07:51:17;100065.19;;;12.11;60.76
15880;BME280;61999;51.514;14.614;2022-10-16T07:54:03;100059.38;;;11.87;61.46
15880;BME280;61999;51.514;14.614;2022-10-16T07:56:39;100066.28;;;12.30;59.97
15880;BME280;61999;51.514;14.614;2022-10-16T07:59:08;100060.81;;;12.00;60.84
15880;BME280;61999;51.514;14.614;2022-10-16T08:01:36;100060.63;;;12.13;60.00
15880;BME280;61999;51.514;14.614;2022-10-16T08:04:05;100066.56;;;11.43;61.63
15880;BME280;61999;51.514;14.614;2022-10-16T08:06:37;100071.34;;;11.49;62.62
15880;BME280;61999;51.514;14.614;2022-10-16T08:09:06;100063.63;;;11.78;61.84
15880;BME280;61999;51.514;14.614;2022-10-16T08:11:34;100065.78;;;10.87;62.75
15880;BME280;61999;51.514;14.614;2022-10-16T08:14:03;100076.78;;;11.04;63.75
15880;BME280;61999;51.514;14.614;2022-10-16T08:16:32;100085.56;;;11.25;62.91
15880;BME280;61999;51.514;14.614;2022-10-16T08:18:59;100089.47;;;11.10;62.88
15880;BME280;61999;51.514;14.614;2022-10-16T08:21:27;100085.34;;;11.17;62.58
15880;BME280;61999;51.514;14.614;2022-10-16T08:23:55;100092.63;;;10.02;65.95
15880;BME280;61999;51.514;14.614;2022-10-16T08:26:25;100087.91;;;10.53;64.68
15880;BME280;61999;51.514;14.614;2022-10-16T08:28:53;100092.06;;;10.33;66.24
15880;BME280;61999;51.514;14.614;2022-10-16T08:31:23;100101.75;;;10.77;64.98
15880;BME280;61999;51.514;14.614;2022-10-16T08:33:53;100104.91;;;10.60;64.94
15880;BME280;61999;51.514;14.614;2022-10-16T08:36:20;100103.53;;;11.43;63.18
15880;BME280;61999;51.514;14.614;2022-10-16T08:38:49;100106.09;;;10.44;65.17
15880;BME280;61999;51.514;14.614;2022-10-16T08:42:05;100104.28;;;10.90;64.70
15880;BME280;61999;51.514;14.614;2022-10-16T08:45:09;100095.22;;;11.15;63.90
15880;BME280;61999;51.514;14.614;2022-10-16T08:47:51;100089.00;;;11.48;62.56
15880;BME280;61999;51.514;14.614;2022-10-16T08:50:25;100087.94;;;11.40;62.01
15880;BME280;61999;51.514;14.614;2022-10-16T08:52:56;100093.38;;;12.01;61.11
15880;BME280;61999;51.514;14.614;2022-10-16T08:55:34;100090.13;;;12.49;58.80
15880;BME280;61999;51.514;14.614;2022-10-16T08:58:12;100099.19;;;11.95;59.27
15880;BME280;61999;51.514;14.614;2022-10-16T09:00:44;100096.81;;;12.43;57.82
15880;BME280;61999;51.514;14.614;2022-10-16T09:03:27;100099.66;;;12.61;58.01
15880;BME280;61999;51.514;14.614;2022-10-16T09:09:27;100091.78;;;12.81;56.50
15880;BME280;61999;51.514;14.614;2022-10-16T09:12:04;100090.75;;;13.12;55.55
15880;BME280;61999;51.514;14.614;2022-10-16T09:14:58;100103.97;;;13.03;56.04
15880;BME280;61999;51.514;14.614;2022-10-16T09:17:43;100106.34;;;12.96;55.70
15880;BME280;61999;51.514;14.614;2022-10-16T09:20:26;100102.03;;;13.14;55.36
15880;BME280;61999;51.514;14.614;2022-10-16T09:23:12;100101.59;;;12.59;56.90
15880;BME280;61999;51.514;14.614;2022-10-16T09:25:46;100106.44;;;12.54;57.12
15880;BME280;61999;51.514;14.614;2022-10-16T09:28:16;100099.63;;;12.00;58.43
15880;BME280;61999;51.514;14.614;2022-10-16T09:30:45;100105.25;;;12.37;57.44
15880;BME280;61999;51.514;14.614;2022-10-16T09:33:17;100111.81;;;12.83;57.29
15880;BME280;61999;51.514;14.614;2022-10-16T09:35:50;100112.25;;;12.79;56.77
15880;BME280;61999;51.514;14.614;2022-10-16T09:38:26;100119.31;;;12.68;56.35
15880;BME280;61999;51.514;14.614;2022-10-16T09:40:56;100117.22;;;12.32;57.62
15880;BME280;61999;51.514;14.614;2022-10-16T09:43:34;100117.97;;;12.84;57.56
15880;BME280;61999;51.514;14.614;2022-10-16T09:46:06;100133.00;;;12.83;56.04
15880;BME280;61999;51.514;14.614;2022-10-16T09:48:39;100126.84;;;13.04;55.78
15880;BME280;61999;51.514;14.614;2022-10-16T09:51:20;100130.34;;;13.33;56.15
15880;BME280;61999;51.514;14.614;2022-10-16T09:53:55;100142.69;;;12.63;56.83
15880;BME280;61999;51.514;14.614;2022-10-16T09:56:26;100149.19;;;11.87;58.99
15880;BME280;61999;51.514;14.614;2022-10-16T09:58:58;100153.97;;;11.93;59.86
15880;BME280;61999;51.514;14.614;2022-10-16T10:01:32;100155.22;;;11.77;60.13
15880;BME280;61999;51.514;14.614;2022-10-16T10:04:04;100153.25;;;12.63;58.87
15880;BME280;61999;51.514;14.614;2022-10-16T10:06:36;100143.16;;;13.57;55.64
15880;BME280;61999;51.514;14.614;2022-10-16T10:09:16;100141.50;;;13.56;55.75
15880;BME280;61999;51.514;14.614;2022-10-16T10:11:50;100150.34;;;12.97;55.76
15880;BME280;61999;51.514;14.614;2022-10-16T10:14:26;100147.38;;;13.70;55.38
15880;BME280;61999;51.514;14.614;2022-10-16T10:17:13;100150.72;;;13.91;53.81
15880;BME280;61999;51.514;14.614;2022-10-16T10:19:48;100149.50;;;15.07;51.96
15880;BME280;61999;51.514;14.614;2022-10-16T10:22:31;100144.53;;;14.94;51.73
15880;BME280;61999;51.514;14.614;2022-10-16T10:25:32;100146.81;;;13.95;53.26
15880;BME280;61999;51.514;14.614;2022-10-16T10:28:21;100149.22;;;14.45;51.54
15880;BME280;61999;51.514;14.614;2022-10-16T10:31:01;100158.34;;;14.14;52.23
15880;BME280;61999;51.514;14.614;2022-10-16T10:33:46;100146.28;;;13.82;53.62
15880;BME280;61999;51.514;14.614;2022-10-16T10:36:27;100145.06;;;14.23;51.95
15880;BME280;61999;51.514;14.614;2022-10-16T10:39:00;100149.47;;;13.56;52.87
15880;BME280;61999;51.514;14.614;2022-10-16T10:42:03;100148.75;;;13.45;53.91
15880;BME280;61999;51.514;14.614;2022-10-16T10:45:07;100140.28;;;12.91;56.45
15880;BME280;61999;51.514;14.614;2022-10-16T10:47:58;100151.88;;;12.69;56.62
15880;BME280;61999;51.514;14.614;2022-10-16T10:50:36;100151.13;;;11.85;59.08
15880;BME280;61999;51.514;14.614;2022-10-16T10:53:21;100157.69;;;11.69;59.49
15880;BME280;61999;51.514;14.614;2022-10-16T10:56:07;100160.28;;;11.80;59.90
15880;BME280;61999;51.514;14.614;2022-10-16T10:59:02;100173.31;;;11.61;60.87
15880;BME280;61999;51.514;14.614;2022-10-16T11:01:47;100171.44;;;11.52;61.41
15880;BME280;61999;51.514;14.614;2022-10-16T11:04:55;100161.63;;;11.43;61.27
15880;BME280;61999;51.514;14.614;2022-10-16T11:07:28;100158.28;;;11.29;62.65
15880;BME280;61999;51.514;14.614;2022-10-16T11:10:03;100170.53;;;12.16;59.48
15880;BME280;61999;51.514;14.614;2022-10-16T11:12:40;100154.75;;;12.25;58.97
15880;BME280;61999;51.514;14.614;2022-10-16T11:15:15;100164.53;;;11.93;59.94
15880;BME280;61999;51.514;14.614;2022-10-16T11:17:51;100166.19;;;11.94;59.74
15880;BME280;61999;51.514;14.614;2022-10-16T11:20:26;100171.88;;;11.89;59.82
15880;BME280;61999;51.514;14.614;2022-10-16T11:23:01;100180.13;;;11.96;60.12
15880;BME280;61999;51.514;14.614;2022-10-16T11:25:33;100180.28;;;12.15;59.92
15880;BME280;61999;51.514;14.614;2022-10-16T11:28:09;100175.84;;;12.67;58.29
15880;BME280;61999;51.514;14.614;2022-10-16T11:30:46;100164.28;;;12.99;56.99
15880;BME280;61999;51.514;14.614;2022-10-16T11:33:28;100173.78;;;12.19;59.39
15880;BME280;61999;51.514;14.614;2022-10-16T11:36:11;100171.94;;;13.02;57.56
15880;BME280;61999;51.514;14.614;2022-10-16T11:38:49;100183.50;;;12.70;58.09
15880;BME280;61999;51.514;14.614;2022-10-16T11:41:27;100172.94;;;13.11;57.08
15880;BME280;61999;51.514;14.614;2022-10-16T11:44:20;100167.19;;;12.96;56.94
15880;BME280;61999;51.514;14.614;2022-10-16T11:46:59;100173.56;;;13.53;55.30
15880;BME280;61999;51.514;14.614;2022-10-16T11:49:45;100173.50;;;13.14;56.10
15880;BME280;61999;51.514;14.614;2022-10-16T11:52:39;100169.78;;;14.24;53.80
15880;BME280;61999;51.514;14.614;2022-10-16T11:55:23;100167.16;;;14.14;53.06
15880;BME280;61999;51.514;14.614;2022-10-16T11:58:09;100168.81;;;13.28;55.79
15880;BME280;61999;51.514;14.614;2022-10-16T12:00:47;100168.94;;;12.86;57.06
15880;BME280;61999;51.514;14.614;2022-10-16T12:03:27;100167.94;;;13.17;55.70
15880;BME280;61999;51.514;14.614;2022-10-16T12:06:23;100179.34;;;12.78;56.75
15880;BME280;61999;51.514;14.614;2022-10-16T12:08:58;100169.44;;;12.39;58.18
15880;BME280;61999;51.514;14.614;2022-10-16T12:11:37;100179.22;;;12.69;57.26
15880;BME280;61999;51.514;14.614;2022-10-16T12:14:19;100170.28;;;13.01;56.33
15880;BME280;61999;51.514;14.614;2022-10-16T12:16:58;100176.41;;;13.81;54.44
15880;BME280;61999;51.514;14.614;2022-10-16T12:19:29;100180.00;;;14.19;54.04
15880;BME280;61999;51.514;14.614;2022-10-16T12:22:01;100189.47;;;13.44;55.17
15880;BME280;61999;51.514;14.614;2022-10-16T12:24:34;100184.16;;;13.63;55.58
15880;BME280;61999;51.514;14.614;2022-10-16T12:27:06;100185.81;;;13.35;55.64
15880;BME280;61999;51.514;14.614;2022-10-16T12:29:38;100188.22;;;13.57;55.23
15880;BME280;61999;51.514;14.614;2022-10-16T12:32:30;100175.59;;;12.80;56.72
15880;BME280;61999;51.514;14.614;2022-10-16T12:35:21;100181.50;;;12.84;57.38
15880;BME280;61999;51.514;14.614;2022-10-16T12:37:50;100193.53;;;12.46;58.17
15880;BME280;61999;51.514;14.614;2022-10-16T12:40:30;100179.88;;;12.71;58.07
15880;BME280;61999;51.514;14.614;2022-10-16T12:42:59;100186.34;;;13.29;56.50
15880;BME280;61999;51.514;14.614;2022-10-16T12:45:30;100178.78;;;12.95;56.93
15880;BME280;61999;51.514;14.614;2022-10-16T12:48:18;100181.72;;;13.81;55.38
15880;BME280;61999;51.514;14.614;2022-10-16T12:50:48;100174.88;;;14.55;52.96
15880;BME280;61999;51.514;14.614;2022-10-16T12:53:20;100172.09;;;15.11;50.90
15880;BME280;61999;51.514;14.614;2022-10-16T12:56:02;100190.09;;;15.45;50.73
15880;BME280;61999;51.514;14.614;2022-10-16T12:58:56;100194.22;;;14.27;52.46
15880;BME280;61999;51.514;14.614;2022-10-16T13:02:06;100191.38;;;14.48;51.78
15880;BME280;61999;51.514;14.614;2022-10-16T13:05:08;100191.03;;;13.85;54.28
15880;BME280;61999;51.514;14.614;2022-10-16T13:07:56;100201.69;;;13.25;56.41
15880;BME280;61999;51.514;14.614;2022-10-16T13:10:38;100210.41;;;13.06;56.79
15880;BME280;61999;51.514;14.614;2022-10-16T13:13:32;100214.41;;;13.60;55.85
15880;BME280;61999;51.514;14.614;2022-10-16T13:16:18;100221.09;;;12.64;58.28
15880;BME280;61999;51.514;14.614;2022-10-16T13:19:02;100220.44;;;12.72;57.25
15880;BME280;61999;51.514;14.614;2022-10-16T13:21:49;100216.78;;;13.44;56.99
15880;BME280;61999;51.514;14.614;2022-10-16T13:24:42;100217.69;;;13.93;53.98
15880;BME280;61999;51.514;14.614;2022-10-16T13:27:23;100235.78;;;13.69;55.23